Time;durP1;ratioP1;P1;durP2;ratioP2;P2;SDS_P1;SDS_P2;PMS_P1;PMS_P2;Temp;Humidity;BMP_temperature;BMP_pressure;BME280_temperature;BME280_humidity;BME280_pressure;Samples;Min_cycle;Max_cycle;Signal;HPM_P1;HPM_P2
2022/06/12 04:03:45;;;;;;;;;2.00;2.00;;;;;19.33;41.94;101927.56;5942498;23;46063;-47
2022/06/12 04:06:21;;;;;;;;;3.75;2.50;;;;;19.31;41.96;101930.31;4980532;28;45356;-51
2022/06/12 04:09:00;;;;;;;;;2.50;1.00;;;;;19.30;42.17;101922.38;4982959;28;45329;-51
2022/06/12 04:11:28;;;;;;;;;4.50;2.50;;;;;19.29;42.16;101921.47;4982765;28;45221;-49
2022/06/12 04:13:56;;;;;;;;;3.75;2.00;;;;;19.27;42.41;101919.78;4974623;28;46426;-50
2022/06/12 04:16:40;;;;;;;;;2.75;2.75;;;;;19.27;41.88;101928.66;4961962;28;45444;-48
2022/06/12 04:19:11;;;;;;;;;2.50;2.50;;;;;19.26;42.38;101918.91;4963223;28;45258;-46
2022/06/12 04:21:59;;;;;;;;;1.00;1.00;;;;;19.25;41.95;101921.63;4963031;28;45414;-48
2022/06/12 04:24:30;;;;;;;;;4.00;2.50;;;;;19.23;42.07;101926.13;4951743;28;46004;-50
2022/06/12 04:27:04;;;;;;;;;2.75;1.00;;;;;19.23;42.49;101927.03;4963026;28;45256;-48
2022/06/12 04:29:34;;;;;;;;;5.25;1.00;;;;;19.20;42.44;101927.09;4961952;28;45455;-48
2022/06/12 04:32:03;;;;;;;;;2.75;2.00;;;;;19.22;42.37;101927.06;4962847;28;45338;-48
2022/06/12 04:34:31;;;;;;;;;4.00;2.25;;;;;19.21;42.09;101938.66;4962840;28;47399;-48
2022/06/12 04:37:00;;;;;;;;;5.00;3.25;;;;;19.22;42.56;101940.38;4962888;28;45243;-50
2022/06/12 04:39:29;;;;;;;;;3.00;1.25;;;;;19.21;42.51;101942.19;4963004;28;45316;-48
2022/06/12 04:41:56;;;;;;;;;2.25;2.25;;;;;19.20;42.78;101929.78;4961465;28;45488;-50
2022/06/12 04:44:22;;;;;;;;;4.50;1.75;;;;;19.20;42.60;101932.44;4962811;28;45236;-49
2022/06/12 04:46:51;;;;;;;;;4.50;3.75;;;;;19.19;42.55;101940.47;4961972;28;45391;-49
2022/06/12 04:49:20;;;;;;;;;2.50;1.50;;;;;19.16;42.49;101925.47;4962339;28;45358;-50
2022/06/12 04:51:47;;;;;;;;;4.00;2.00;;;;;19.12;42.40;101921.16;4962681;28;45256;-47
2022/06/12 04:54:12;;;;;;;;;5.75;4.00;;;;;19.14;42.73;101922.84;4962486;28;45379;-50
2022/06/12 04:56:38;;;;;;;;;5.00;2.00;;;;;19.13;42.51;101925.53;4962402;28;45391;-49
2022/06/12 04:59:05;;;;;;;;;4.00;3.00;;;;;19.13;42.62;101923.78;4961321;28;45291;-46
2022/06/12 05:01:32;;;;;;;;;3.75;2.50;;;;;19.11;42.92;101917.59;4962433;28;45320;-47
2022/06/12 05:03:59;;;;;;;;;5.00;2.75;;;;;19.14;42.98;101917.53;4962000;28;46338;-49
2022/06/12 05:06:26;;;;;;;;;5.25;3.00;;;;;19.13;43.11;101917.56;4962456;28;45294;-47
2022/06/12 05:08:52;;;;;;;;;3.00;2.00;;;;;19.13;42.82;101922.88;4962591;28;45173;-50
2022/06/12 05:11:18;;;;;;;;;5.25;3.75;;;;;19.12;43.03;101922.03;4961460;28;45413;-46
2022/06/12 05:13:44;;;;;;;;;3.00;2.00;;;;;19.11;42.92;101920.28;4962033;28;46107;-46
2022/06/12 05:16:23;;;;;;;;;3.75;3.25;;;;;19.13;42.72;101921.09;4962288;28;45493;-50
2022/06/12 05:18:48;;;;;;;;;2.25;1.25;;;;;19.10;42.34;101912.34;4962502;28;45271;-47
2022/06/12 05:21:13;;;;;;;;;2.00;2.00;;;;;19.14;43.21;101920.19;4960806;28;45533;-48
2022/06/12 05:23:39;;;;;;;;;4.75;4.00;;;;;19.14;42.85;101912.19;4961910;28;46135;-54
2022/06/12 05:26:06;;;;;;;;;2.00;1.00;;;;;19.14;43.11;101912.19;4962365;28;45295;-50
2022/06/12 05:28:31;;;;;;;;;3.00;3.00;;;;;19.15;42.87;101919.25;4962339;28;45309;-49
2022/06/12 05:30:57;;;;;;;;;2.25;2.25;;;;;19.13;43.24;101907.78;4962358;28;45267;-48
2022/06/12 05:33:22;;;;;;;;;3.50;2.75;;;;;19.16;43.40;101910.34;4962024;28;45960;-47
2022/06/12 05:35:47;;;;;;;;;4.25;2.00;;;;;19.15;43.31;101913.91;4961904;28;45310;-46
2022/06/12 05:38:13;;;;;;;;;2.25;2.25;;;;;19.15;43.05;101911.25;4962224;28;45274;-50
2022/06/12 05:40:40;;;;;;;;;4.00;3.00;;;;;19.15;43.03;101908.59;4962124;28;45376;-47
2022/06/12 05:43:06;;;;;;;;;3.50;2.00;;;;;19.15;43.17;101911.25;4961910;28;45459;-48
2022/06/12 05:45:33;;;;;;;;;4.25;3.00;;;;;19.15;43.05;101921.06;4961864;28;45311;-52
2022/06/12 05:48:04;;;;;;;;;4.75;3.00;;;;;19.19;43.22;101927.16;4960868;28;45300;-48
2022/06/12 05:50:32;;;;;;;;;4.75;2.25;;;;;19.19;43.17;101927.16;4960317;28;45477;-50
2022/06/12 05:52:58;;;;;;;;;2.00;2.00;;;;;19.20;43.28;101928.91;4961678;28;46218;-48
2022/06/12 05:55:24;;;;;;;;;2.00;1.75;;;;;19.21;43.00;101931.53;4961738;28;45473;-50
2022/06/12 05:57:49;;;;;;;;;2.00;2.00;;;;;19.23;43.43;101937.69;4961757;28;45329;-48
2022/06/12 06:00:22;;;;;;;;;2.50;1.75;;;;;19.21;42.84;101922.66;4961995;28;45220;-50
2022/06/12 06:02:48;;;;;;;;;3.00;3.00;;;;;19.27;43.17;101938.44;4961447;28;46366;-50
2022/06/12 06:05:14;;;;;;;;;4.75;3.00;;;;;19.29;42.91;101941.94;4961172;28;46057;-50
2022/06/12 06:07:40;;;;;;;;;5.00;3.75;;;;;19.31;43.37;101940.09;4961723;28;45299;-50
2022/06/12 06:10:11;;;;;;;;;3.25;1.00;;;;;19.36;43.38;101947.94;4961788;28;45247;-49
2022/06/12 06:12:36;;;;;;;;;6.25;4.00;;;;;19.39;42.81;101945.19;4961381;28;46406;-49
2022/06/12 06:15:02;;;;;;;;;3.00;2.00;;;;;19.43;42.83;101944.16;4961148;28;46243;-48
2022/06/12 06:17:27;;;;;;;;;3.50;2.00;;;;;19.46;43.29;101942.25;4961519;28;45330;-48
2022/06/12 06:19:52;;;;;;;;;5.00;3.50;;;;;19.50;43.17;101937.72;4961293;28;45184;-49
2022/06/12 06:22:20;;;;;;;;;5.75;3.50;;;;;19.53;43.30;101940.25;4960996;28;46285;-50
2022/06/12 06:24:46;;;;;;;;;4.00;1.00;;;;;19.56;43.20;101952.59;4961403;28;45255;-48
2022/06/12 06:27:13;;;;;;;;;4.25;3.00;;;;;19.58;42.98;101948.13;4961256;28;45321;-51
2022/06/12 06:29:39;;;;;;;;;3.00;1.50;;;;;19.62;42.85;101944.41;4961277;28;45273;-48
2022/06/12 06:32:07;;;;;;;;;2.75;1.00;;;;;19.66;42.64;101946.06;4960984;28;45492;-49
2022/06/12 06:34:33;;;;;;;;;3.00;3.00;;;;;19.69;43.11;101947.78;4959801;28;45276;-51
2022/06/12 06:36:59;;;;;;;;;4.50;2.00;;;;;19.70;42.61;101941.47;4961211;28;45266;-49
2022/06/12 06:39:25;;;;;;;;;5.75;2.00;;;;;19.74;42.98;101944.00;4961134;28;45240;-51
2022/06/12 06:41:50;;;;;;;;;2.25;2.00;;;;;19.77;43.01;101949.25;4960909;28;46261;-49
2022/06/12 06:46:59;;;;;;;;;2.25;2.25;;;;;19.79;42.66;101935.88;4961190;28;45377;-49
2022/06/12 06:49:25;;;;;;;;;3.00;3.00;;;;;19.83;42.89;101948.19;4960989;28;45286;-51
2022/06/12 06:51:50;;;;;;;;;3.75;3.25;;;;;19.86;42.80;101949.88;4961058;28;45287;-51
2022/06/12 06:54:17;;;;;;;;;4.50;3.00;;;;;19.87;43.04;101954.28;4961204;28;45260;-48
2022/06/12 06:56:43;;;;;;;;;2.75;2.75;;;;;19.88;42.62;101954.25;4961097;28;45512;-52
2022/06/12 06:59:08;;;;;;;;;3.25;2.00;;;;;19.90;42.86;101956.84;4960986;28;45346;-52
2022/06/12 07:01:34;;;;;;;;;4.75;3.75;;;;;19.92;43.00;101955.91;4960564;28;45880;-51
2022/06/12 07:04:01;;;;;;;;;4.00;3.00;;;;;19.95;43.06;101963.78;4960683;28;45303;-46
2022/06/12 07:06:27;;;;;;;;;5.00;2.25;;;;;19.98;42.55;101962.81;4959289;28;45314;-52
2022/06/12 07:08:54;;;;;;;;;2.00;1.25;;;;;20.02;42.87;101958.25;4959394;28;45398;-48
2022/06/12 07:11:20;;;;;;;;;2.75;2.75;;;;;20.05;42.71;101963.44;4960598;28;46371;-48
2022/06/12 07:13:45;;;;;;;;;2.75;2.25;;;;;20.07;42.64;101951.81;4960607;28;45260;-50
2022/06/12 07:16:11;;;;;;;;;3.00;2.50;;;;;20.11;42.29;101956.13;4960833;28;45209;-48
2022/06/12 07:18:36;;;;;;;;;3.00;2.00;;;;;20.16;42.51;101941.75;4960855;28;45317;-48
2022/06/12 07:21:03;;;;;;;;;3.00;1.00;;;;;20.20;42.32;101946.03;4960435;28;46143;-48
2022/06/12 07:23:30;;;;;;;;;7.00;3.50;;;;;20.23;42.36;101945.94;4960382;28;45262;-48
2022/06/12 07:25:59;;;;;;;;;3.75;3.75;;;;;20.26;42.68;101948.50;4960755;28;45331;-50
2022/06/12 07:28:26;;;;;;;;;5.00;5.00;;;;;20.28;42.71;101950.16;4960516;28;45352;-50
2022/06/12 07:30:52;;;;;;;;;2.25;2.25;;;;;20.34;42.83;101953.53;4960374;28;46164;-49
2022/06/12 07:33:18;;;;;;;;;4.00;2.75;;;;;20.38;42.33;101949.84;4960318;28;45367;-52
2022/06/12 07:35:45;;;;;;;;;3.00;2.00;;;;;20.41;42.32;101961.28;4963783;28;45327;-49
2022/06/12 07:38:14;;;;;;;;;4.00;2.50;;;;;20.46;42.74;101958.44;4963825;28;45440;-52
2022/06/12 07:40:44;;;;;;;;;2.75;1.75;;;;;20.48;42.18;101953.94;4963843;28;46334;-49
2022/06/12 07:43:09;;;;;;;;;3.50;1.00;;;;;20.50;42.51;101953.88;4963600;28;45376;-52
2022/06/12 07:45:37;;;;;;;;;4.75;2.00;;;;;20.49;41.96;101955.69;4963784;28;45323;-50
2022/06/12 07:48:03;;;;;;;;;4.00;2.00;;;;;20.53;42.50;101954.63;4962393;28;45548;-51
2022/06/12 07:50:29;;;;;;;;;5.25;3.25;;;;;20.53;42.56;101948.44;4963461;28;45524;-51
2022/06/12 07:52:55;;;;;;;;;5.00;3.50;;;;;20.60;42.39;101965.94;4963657;28;45493;-52
2022/06/12 07:55:21;;;;;;;;;5.25;2.00;;;;;20.61;42.51;101963.22;4963842;28;45235;-52
2022/06/12 07:57:47;;;;;;;;;4.25;2.00;;;;;20.62;42.29;101956.94;4963287;28;45230;-52
2022/06/12 08:00:14;;;;;;;;;3.00;2.50;;;;;20.66;42.21;101959.50;4963391;28;47393;-50
2022/06/12 08:02:44;;;;;;;;;3.00;2.75;;;;;20.68;42.38;101958.53;4962775;28;45470;-49
2022/06/12 08:05:10;;;;;;;;;5.00;2.25;;;;;20.71;41.94;101952.22;4961168;28;45390;-47
2022/06/12 08:07:36;;;;;;;;;2.50;1.50;;;;;20.73;41.76;101951.25;4962902;28;45565;-50
2022/06/12 08:10:03;;;;;;;;;2.00;2.00;;;;;20.74;42.05;101944.97;4961558;28;47289;-47
2022/06/12 08:12:31;;;;;;;;;1.25;1.25;;;;;20.75;42.11;101944.06;4963290;28;45275;-50
2022/06/12 08:14:56;;;;;;;;;3.25;3.25;;;;;20.78;41.78;101946.59;4963264;28;45424;-48
2022/06/12 08:17:22;;;;;;;;;2.00;2.00;;;;;20.78;42.29;101949.25;4962994;28;45300;-49
2022/06/12 08:22:31;;;;;;;;;3.00;2.00;;;;;20.83;42.33;101948.22;4963105;28;45366;-49
2022/06/12 08:24:57;;;;;;;;;3.25;3.25;;;;;20.86;41.71;101942.75;4963272;28;45275;-51
2022/06/12 08:27:22;;;;;;;;;3.00;3.00;;;;;20.89;41.92;101945.31;4961807;28;45259;-47
2022/06/12 08:29:48;;;;;;;;;2.00;1.75;;;;;20.90;41.83;101941.72;4963371;28;45414;-46
2022/06/12 08:32:19;;;;;;;;;3.00;2.00;;;;;20.92;41.93;101945.19;4962841;28;45206;-46
2022/06/12 08:35:06;;;;;;;;;3.50;2.50;;;;;20.99;42.00;101943.16;4962910;28;45403;-49
2022/06/12 08:37:35;;;;;;;;;4.50;2.25;;;;;21.02;42.49;101943.91;4962999;28;45414;-49
2022/06/12 08:40:03;;;;;;;;;2.25;2.00;;;;;21.06;42.45;101936.66;4962646;28;46195;-49
2022/06/12 08:42:31;;;;;;;;;4.50;3.50;;;;;21.09;42.27;101934.72;4962929;28;45381;-50
2022/06/12 08:45:19;;;;;;;;;3.00;3.00;;;;;21.14;42.36;101937.19;4962198;28;45339;-49
2022/06/12 08:48:08;;;;;;;;;4.25;3.75;;;;;21.19;41.99;101932.53;4962561;28;45172;-48
2022/06/12 08:50:40;;;;;;;;;5.25;1.75;;;;;21.23;42.31;101927.94;4962641;28;45391;-50
2022/06/12 08:53:12;;;;;;;;;5.75;4.00;;;;;21.28;42.24;101917.94;4962620;28;45390;-49
2022/06/12 08:55:41;;;;;;;;;5.75;3.25;;;;;21.33;41.73;101928.44;4962705;28;45214;-50
2022/06/12 08:58:15;;;;;;;;;4.00;2.50;;;;;21.36;42.33;101920.31;4962457;28;45529;-51
2022/06/12 09:00:40;;;;;;;;;2.25;2.25;;;;;21.39;41.53;101929.06;4962415;28;47175;-50
2022/06/12 09:03:11;;;;;;;;;2.00;2.00;;;;;21.45;41.63;101921.75;4962451;28;45343;-48
2022/06/12 09:05:51;;;;;;;;;2.25;1.50;;;;;21.49;41.53;101913.50;4962305;28;45347;-50
2022/06/12 09:08:31;;;;;;;;;2.25;2.00;;;;;21.52;41.24;101913.38;4961266;28;45264;-47
2022/06/12 09:11:14;;;;;;;;;5.00;2.00;;;;;21.55;41.20;101923.97;4962179;28;46661;-49
2022/06/12 09:13:49;;;;;;;;;3.50;3.00;;;;;21.60;41.44;101926.47;4960856;28;45462;-48
2022/06/12 09:16:28;;;;;;;;;3.25;2.00;;;;;21.61;41.23;101912.16;4962475;28;45315;-50
2022/06/12 09:19:31;;;;;;;;;3.00;1.50;;;;;21.69;41.16;101909.16;4961848;28;45589;-51
2022/06/12 09:22:02;;;;;;;;;2.50;2.00;;;;;21.73;41.30;101908.94;4960967;28;45590;-48
2022/06/12 09:24:51;;;;;;;;;4.50;2.00;;;;;21.79;41.17;101910.50;4961990;28;45314;-52
2022/06/12 09:27:35;;;;;;;;;4.00;2.75;;;;;21.83;41.36;101917.44;4962161;28;45250;-45
2022/06/12 09:30:08;;;;;;;;;3.25;3.00;;;;;21.88;41.18;101910.09;4962017;28;45547;-50
2022/06/12 09:32:58;;;;;;;;;3.00;1.50;;;;;21.96;41.15;101911.56;4961909;28;46091;-49
2022/06/12 09:35:54;;;;;;;;;3.00;3.00;;;;;22.02;40.83;101914.84;4961692;28;45333;-50
2022/06/12 09:38:22;;;;;;;;;2.00;2.00;;;;;22.08;40.96;101911.91;4962139;28;45251;-49
2022/06/12 09:41:09;;;;;;;;;4.25;3.00;;;;;22.14;40.79;101904.53;4961614;28;45350;-46
2022/06/12 09:43:59;;;;;;;;;4.25;3.00;;;;;22.21;41.07;101912.25;4961223;28;46480;-49
2022/06/12 09:46:27;;;;;;;;;2.25;2.25;;;;;22.28;40.78;101912.81;4961736;28;45289;-51
2022/06/12 09:49:37;;;;;;;;;2.00;1.75;;;;;22.34;40.38;101923.25;4962145;28;45387;-48
2022/06/12 09:52:36;;;;;;;;;1.50;1.50;;;;;22.38;40.16;101913.31;4956497;28;45320;-46
2022/06/12 09:55:11;;;;;;;;;2.75;2.00;;;;;22.44;40.14;101917.50;4960275;28;46517;-48
2022/06/12 09:57:46;;;;;;;;;5.00;3.75;;;;;22.51;40.16;101916.28;4961144;28;45405;-46
2022/06/12 10:00:24;;;;;;;;;3.75;3.75;;;;;22.58;40.34;101914.19;4962079;28;45200;-48
2022/06/12 10:03:10;;;;;;;;;1.50;1.50;;;;;22.69;40.39;101912.75;4961277;28;45277;-48
2022/06/12 10:05:51;;;;;;;;;3.50;3.50;;;;;22.81;40.37;101916.66;4960404;28;46375;-47
2022/06/12 10:08:19;;;;;;;;;3.75;2.25;;;;;22.93;40.42;101906.31;4961553;28;45263;-48
2022/06/12 10:10:54;;;;;;;;;3.00;1.75;;;;;23.03;40.01;101900.44;4961505;28;45516;-46
2022/06/12 10:13:24;;;;;;;;;2.50;2.50;;;;;23.15;40.28;101896.31;4961475;28;45459;-51
2022/06/12 10:16:00;;;;;;;;;2.00;2.00;;;;;23.26;40.32;101900.25;4957762;28;45407;-48
2022/06/12 10:18:32;;;;;;;;;0.75;0.75;;;;;23.38;40.37;101899.66;4942733;28;47555;-49
2022/06/12 10:21:07;;;;;;;;;3.00;3.00;;;;;23.51;40.02;101898.09;4945851;28;45236;-50
2022/06/12 10:23:33;;;;;;;;;4.50;4.00;;;;;23.66;40.16;101890.19;4950939;28;45722;-47
2022/06/12 10:26:01;;;;;;;;;6.00;3.75;;;;;23.79;40.28;101887.78;4948647;28;46115;-48
2022/06/12 10:28:33;;;;;;;;;4.50;4.50;;;;;23.94;40.01;101889.69;4954710;28;45312;-48
2022/06/12 10:31:04;;;;;;;;;7.00;5.25;;;;;24.11;39.94;101887.91;4949243;28;45262;-48
2022/06/12 10:33:42;;;;;;;;;3.25;2.25;;;;;24.27;40.01;101885.28;4948004;28;45373;-50
2022/06/12 10:36:25;;;;;;;;;5.25;2.75;;;;;24.44;39.64;101893.28;4950932;28;46328;-45
2022/06/12 10:39:10;;;;;;;;;3.75;2.00;;;;;24.71;39.75;101883.81;4960795;28;45266;-50
2022/06/12 10:41:55;;;;;;;;;1.00;1.00;;;;;25.02;40.06;101885.63;4952539;28;45391;-48
2022/06/12 10:44:32;;;;;;;;;3.75;3.50;;;;;25.41;40.18;101888.81;4960831;28;45419;-50
2022/06/12 10:47:17;;;;;;;;;3.25;3.25;;;;;25.82;40.54;101885.44;4960305;28;45256;-50
2022/06/12 10:49:43;;;;;;;;;5.25;4.25;;;;;26.21;40.65;101875.03;4958377;28;45516;-51
2022/06/12 10:52:21;;;;;;;;;3.50;3.00;;;;;26.69;40.12;101867.47;4945122;28;45287;-49
2022/06/12 10:54:50;;;;;;;;;2.00;2.00;;;;;27.14;40.78;101863.69;4960610;28;45351;-49
2022/06/12 10:57:30;;;;;;;;;1.00;1.00;;;;;27.56;39.89;101851.84;4960579;28;46346;-53
2022/06/12 11:00:15;;;;;;;;;4.00;4.00;;;;;28.04;40.41;101848.56;4952653;28;45208;-49
2022/06/12 11:03:08;;;;;;;;;3.75;3.75;;;;;28.49;40.15;101853.47;4950862;28;45362;-49
2022/06/12 11:06:12;;;;;;;;;2.00;2.00;;;;;29.01;39.83;101846.03;4958717;28;45314;-48
2022/06/12 11:08:56;;;;;;;;;3.75;2.25;;;;;29.48;39.87;101856.06;4959355;28;46297;-49
2022/06/12 11:12:09;;;;;;;;;7.50;3.25;;;;;29.95;39.15;101843.41;4955758;28;45480;-47
2022/06/12 11:15:00;;;;;;;;;5.00;4.00;;;;;30.43;39.48;101847.69;4952731;28;45706;-46
2022/06/12 11:17:49;;;;;;;;;5.75;3.75;;;;;30.89;39.35;101834.03;4947921;28;46450;-49
2022/06/12 11:20:31;;;;;;;;;4.00;4.00;;;;;31.33;39.22;101829.41;4966867;28;46471;-48
2022/06/12 11:23:19;;;;;;;;;2.50;2.50;;;;;31.74;38.31;101838.56;4970605;28;45437;-52
2022/06/12 11:26:14;;;;;;;;;4.00;4.00;;;;;32.16;38.46;101820.47;4959277;28;45412;-49
2022/06/12 11:29:04;;;;;;;;;2.25;2.25;;;;;32.58;37.94;101821.16;4931790;28;45495;-49
2022/06/12 11:31:43;;;;;;;;;7.50;5.50;;;;;33.00;37.57;101825.53;4962172;28;45493;-52
2022/06/12 11:34:30;;;;;;;;;4.50;4.25;;;;;33.40;37.71;101820.06;4961757;28;45389;-48
2022/06/12 11:37:27;;;;;;;;;6.00;4.00;;;;;33.74;37.14;101817.69;4960397;28;45382;-48
2022/06/12 11:40:01;;;;;;;;;5.00;5.00;;;;;33.97;37.17;101828.25;4961813;28;45445;-50
2022/06/12 11:42:59;;;;;;;;;5.25;5.25;;;;;34.27;37.14;101820.78;4957233;28;47982;-50
2022/06/12 11:45:24;;;;;;;;;3.50;3.50;;;;;34.50;36.79;101816.66;4961617;28;45609;-51
2022/06/12 11:47:55;;;;;;;;;3.75;2.50;;;;;34.74;36.74;101812.44;4961798;28;45437;-49
2022/06/12 11:50:30;;;;;;;;;4.50;4.50;;;;;34.98;36.07;101805.53;4961853;28;45661;-51
2022/06/12 11:53:43;;;;;;;;;5.75;5.75;;;;;35.25;35.76;101798.25;4959837;28;45457;-51
2022/06/12 11:56:42;;;;;;;;;6.50;4.75;;;;;35.41;35.33;101800.25;4911993;28;45482;-49
2022/06/12 11:59:14;;;;;;;;;6.00;5.00;;;;;35.45;34.70;101797.06;4951227;28;45586;-50
2022/06/12 12:02:01;;;;;;;;;7.50;7.50;;;;;35.41;34.49;101803.84;4961347;28;45543;-50
2022/06/12 12:04:32;;;;;;;;;5.75;4.50;;;;;35.27;34.36;101801.66;4961061;28;46397;-50
2022/06/12 12:07:10;;;;;;;;;3.00;3.00;;;;;35.09;33.93;101794.38;4957585;28;45484;-52
2022/06/12 12:09:48;;;;;;;;;4.00;4.00;;;;;34.85;33.52;101788.69;4957449;28;45832;-51
2022/06/12 12:12:19;;;;;;;;;5.00;3.50;;;;;34.62;33.53;101789.16;4961615;28;45480;-52
2022/06/12 12:14:46;;;;;;;;;3.75;2.25;;;;;34.39;33.43;101788.72;4961225;28;46891;-50
2022/06/12 12:17:27;;;;;;;;;4.75;3.25;;;;;34.17;33.04;101782.66;4961337;28;45536;-51
2022/06/12 12:19:59;;;;;;;;;5.75;4.50;;;;;33.89;33.01;101781.78;4962023;28;45387;-49
2022/06/12 12:22:36;;;;;;;;;6.50;5.25;;;;;33.65;32.92;101775.00;4975140;28;45380;-48
2022/06/12 12:25:19;;;;;;;;;5.00;5.00;;;;;33.44;32.60;101764.31;4976908;28;46294;-47
2022/06/12 12:27:52;;;;;;;;;6.50;5.50;;;;;33.24;33.11;101763.47;4955771;28;45468;-47
2022/06/12 12:30:40;;;;;;;;;7.00;6.25;;;;;32.98;32.49;101762.22;4978918;28;45430;-49
2022/06/12 12:33:13;;;;;;;;;7.00;7.00;;;;;32.71;32.28;101761.03;4975150;28;45413;-50
2022/06/12 12:41:16;;;;;;;;;5.25;5.00;;;;;32.13;32.21;101764.50;4980029;28;45449;-46
2022/06/12 12:43:49;;;;;;;;;8.25;7.00;;;;;32.01;32.50;101762.91;4979074;28;45591;-49
2022/06/12 12:46:16;;;;;;;;;2.75;2.75;;;;;31.91;32.23;101752.88;4978190;28;45519;-48
2022/06/12 12:48:47;;;;;;;;;5.50;4.75;;;;;31.82;32.38;101752.81;4979220;28;45562;-48
2022/06/12 12:51:34;;;;;;;;;4.25;4.00;;;;;31.66;32.14;101747.88;4976291;28;45826;-49
2022/06/12 12:54:26;;;;;;;;;3.75;3.75;;;;;31.57;32.02;101750.41;4974207;28;45393;-48
2022/06/12 12:56:59;;;;;;;;;4.75;4.50;;;;;31.55;31.59;101746.97;4964372;28;46881;-50
2022/06/12 12:59:35;;;;;;;;;4.00;3.00;;;;;31.58;31.58;101743.09;4979151;28;45553;-50
2022/06/12 13:02:18;;;;;;;;;4.00;4.00;;;;;31.66;31.87;101746.06;4979081;28;45350;-47
2022/06/12 13:04:44;;;;;;;;;13.50;12.75;;;;;31.73;31.21;101740.94;4954805;28;45356;-53
2022/06/12 13:07:24;;;;;;;;;15.25;15.25;;;;;31.76;31.36;101737.91;4976547;28;45517;-45
2022/06/12 13:09:55;;;;;;;;;19.75;18.50;;;;;31.87;30.79;101736.97;4964151;28;45444;-49
2022/06/12 13:12:45;;;;;;;;;12.75;11.50;;;;;32.07;31.52;101740.59;4966395;28;45184;-49
2022/06/12 13:15:20;;;;;;;;;10.50;10.50;;;;;32.33;30.82;101745.56;4972880;28;45723;-49
2022/06/12 13:18:17;;;;;;;;;7.25;7.25;;;;;32.62;31.35;101745.59;4969438;28;46576;-50
2022/06/12 13:20:51;;;;;;;;;6.00;6.00;;;;;33.01;31.42;101739.31;4929891;28;45566;-49
2022/06/12 13:23:43;;;;;;;;;5.00;5.00;;;;;33.37;31.25;101739.50;4980269;28;45306;-47
2022/06/12 13:26:13;;;;;;;;;3.00;2.00;;;;;33.75;31.19;101734.94;4958369;28;45464;-48
2022/06/12 13:28:40;;;;;;;;;3.50;3.50;;;;;34.22;31.21;101733.13;4978625;28;47280;-46
2022/06/12 13:31:17;;;;;;;;;4.00;2.00;;;;;34.62;31.30;101721.78;4979677;28;45278;-46
2022/06/12 13:33:56;;;;;;;;;4.25;3.50;;;;;34.99;31.12;101728.97;4978341;28;45366;-46
2022/06/12 13:36:26;;;;;;;;;2.00;2.00;;;;;35.32;30.44;101725.56;4980046;28;45437;-51
2022/06/12 13:38:59;;;;;;;;;3.00;3.00;;;;;35.57;30.51;101725.72;4977503;28;46324;-50
2022/06/12 13:41:43;;;;;;;;;1.25;1.25;;;;;35.87;30.17;101724.34;4978702;28;45239;-50
2022/06/12 13:44:22;;;;;;;;;3.00;1.00;;;;;36.18;30.07;101726.50;4969734;28;45248;-49
2022/06/12 13:46:48;;;;;;;;;2.75;2.75;;;;;36.39;30.31;101722.44;4978165;28;45326;-46
2022/06/12 13:49:28;;;;;;;;;3.00;2.00;;;;;36.75;30.45;101713.91;4979548;28;45454;-48
2022/06/12 13:52:00;;;;;;;;;1.75;1.75;;;;;37.15;30.20;101712.19;4956337;28;45475;-48
2022/06/12 13:54:27;;;;;;;;;2.75;2.75;;;;;37.54;30.24;101714.13;4968642;28;45164;-51
2022/06/12 13:56:55;;;;;;;;;5.00;5.00;;;;;37.89;29.56;101714.69;4979797;28;45554;-50
2022/06/12 13:59:23;;;;;;;;;3.00;3.00;;;;;38.20;29.34;101716.59;4977761;28;46044;-52
2022/06/12 14:01:50;;;;;;;;;3.25;3.25;;;;;38.41;29.33;101712.34;4978974;28;45493;-53
2022/06/12 14:04:29;;;;;;;;;3.50;3.50;;;;;38.67;29.10;101711.94;4977637;28;45377;-52
2022/06/12 14:06:58;;;;;;;;;2.00;1.00;;;;;38.84;28.68;101703.59;4969530;28;45245;-51
2022/06/12 14:09:29;;;;;;;;;2.75;2.75;;;;;39.10;28.58;101694.91;4966532;28;45531;-53
2022/06/12 14:11:55;;;;;;;;;2.75;2.75;;;;;39.38;28.86;101699.75;4971419;28;45392;-54
2022/06/12 14:14:21;;;;;;;;;2.00;2.00;;;;;39.68;28.91;101697.03;4968789;28;45501;-53
2022/06/12 14:16:46;;;;;;;;;3.50;2.50;;;;;39.96;28.38;101710.91;4971574;28;45491;-52
2022/06/12 14:19:12;;;;;;;;;2.00;2.00;;;;;40.23;28.33;101715.84;4958289;28;46467;-52
2022/06/12 14:21:41;;;;;;;;;2.25;2.00;;;;;40.41;27.98;101716.25;4969727;28;45266;-54
2022/06/12 14:24:15;;;;;;;;;3.00;3.00;;;;;40.55;27.68;101709.00;4977398;28;45262;-53
2022/06/12 14:26:46;;;;;;;;;4.75;2.00;;;;;40.72;27.63;101703.19;4975731;28;45505;-51
2022/06/12 14:29:36;;;;;;;;;4.00;3.00;;;;;40.93;27.59;101694.91;4977602;28;46360;-53
2022/06/12 14:32:10;;;;;;;;;2.00;2.00;;;;;41.15;27.57;101693.97;4977147;28;45407;-52
2022/06/12 14:34:36;;;;;;;;;1.75;1.75;;;;;41.26;26.88;101701.72;4977727;28;45393;-51
2022/06/12 14:37:02;;;;;;;;;1.75;1.75;;;;;41.47;27.91;101689.75;4977328;28;45426;-50
2022/06/12 14:39:53;;;;;;;;;2.00;1.25;;;;;41.77;27.01;101683.91;4979028;28;45334;-51
2022/06/12 14:42:21;;;;;;;;;2.00;1.00;;;;;42.03;26.74;101694.19;4976915;28;45318;-54
2022/06/12 14:44:47;;;;;;;;;1.75;1.75;;;;;42.28;26.85;101690.00;4977113;28;45439;-53
2022/06/12 14:47:15;;;;;;;;;1.75;1.75;;;;;42.51;26.73;101681.34;4977276;28;45376;-52
2022/06/12 14:49:41;;;;;;;;;1.00;1.00;;;;;42.68;26.57;101679.84;4975627;28;46100;-53
2022/06/12 14:52:07;;;;;;;;;2.00;2.00;;;;;42.76;26.02;101683.44;4976552;28;45519;-52
2022/06/12 14:54:32;;;;;;;;;1.75;1.75;;;;;42.69;25.98;101680.72;4974012;28;45259;-52
2022/06/12 14:56:58;;;;;;;;;2.50;2.50;;;;;42.68;25.71;101682.59;4978931;28;45405;-52
2022/06/12 14:59:26;;;;;;;;;1.50;1.50;;;;;42.60;24.74;101690.25;4977674;28;45578;-50
2022/06/12 15:01:52;;;;;;;;;1.75;1.75;;;;;42.43;25.33;101676.88;4978795;28;45400;-48
2022/06/12 15:04:18;;;;;;;;;2.00;1.00;;;;;42.35;25.43;101686.19;4975849;28;45550;-52
2022/06/12 15:06:44;;;;;;;;;1.25;1.25;;;;;42.28;25.58;101684.50;4978211;28;45578;-52
2022/06/12 15:09:10;;;;;;;;;0.75;0.75;;;;;42.19;25.19;101678.28;4966237;28;46027;-52
2022/06/12 15:11:38;;;;;;;;;2.75;2.75;;;;;42.10;25.51;101674.06;4967030;28;45320;-54
2022/06/12 15:14:04;;;;;;;;;3.25;3.25;;;;;42.00;26.16;101664.28;4969567;28;45452;-54
2022/06/12 15:16:31;;;;;;;;;3.25;2.50;;;;;41.92;25.50;101663.63;4977166;28;45804;-53
2022/06/12 15:18:57;;;;;;;;;2.00;2.00;;;;;41.87;26.34;101661.47;4973179;28;46367;-49
2022/06/12 15:21:37;;;;;;;;;3.25;2.75;;;;;41.80;26.28;101666.97;4965408;28;45394;-53
2022/06/12 15:24:05;;;;;;;;;2.00;2.00;;;;;41.72;26.13;101667.97;4975058;28;45439;-54
2022/06/12 15:31:59;;;;;;;;;1.00;1.00;;;;;41.31;25.38;101662.50;4975442;28;45357;-52
2022/06/12 15:34:30;;;;;;;;;3.00;2.00;;;;;41.20;25.52;101651.00;4976815;28;45553;-51
2022/06/12 15:36:55;;;;;;;;;3.00;3.00;;;;;41.09;25.79;101649.66;4974770;28;45474;-52
2022/06/12 15:39:21;;;;;;;;;2.25;1.25;;;;;40.97;25.94;101645.75;4976015;28;45311;-52
2022/06/12 15:41:46;;;;;;;;;3.00;2.00;;;;;40.86;26.37;101644.41;4974266;28;45545;-53
2022/06/12 15:44:12;;;;;;;;;3.00;3.00;;;;;40.75;26.30;101640.31;4976644;28;45374;-53
2022/06/12 15:46:38;;;;;;;;;2.25;1.00;;;;;40.66;25.76;101652.53;4974697;28;45564;-50
2022/06/12 15:49:04;;;;;;;;;2.50;2.00;;;;;40.55;25.11;101642.06;4976212;28;46141;-51
2022/06/12 15:51:30;;;;;;;;;2.50;1.75;;;;;40.43;25.33;101642.59;4974500;28;45382;-52
2022/06/12 15:53:56;;;;;;;;;5.25;3.25;;;;;40.31;25.64;101646.94;4970810;28;45764;-50
2022/06/12 15:56:23;;;;;;;;;2.50;2.00;;;;;40.20;25.69;101645.53;4977284;28;45517;-52
2022/06/12 15:58:49;;;;;;;;;2.75;1.75;;;;;40.08;25.70;101636.94;4978361;28;46301;-48
2022/06/12 16:01:21;;;;;;;;;2.75;2.00;;;;;39.95;25.22;101632.19;4977798;28;45468;-52
2022/06/12 16:03:47;;;;;;;;;2.00;2.00;;;;;39.79;24.96;101627.78;4978850;28;45500;-52
2022/06/12 16:06:14;;;;;;;;;2.25;2.25;;;;;39.62;24.94;101631.78;4975363;28;45759;-51
2022/06/12 16:08:40;;;;;;;;;6.75;2.00;;;;;39.45;25.29;101625.66;4973043;28;45557;-47